createdAt,value
2018-06-24T00:00:49.469Z,12.1
2018-06-24T00:02:49.542Z,12.1
2018-06-24T00:04:49.977Z,12.1
2018-06-24T00:06:50.227Z,11.6
2018-06-24T00:08:50.306Z,12.6
2018-06-24T00:10:50.391Z,10.9
2018-06-24T00:12:49.650Z,10.6
2018-06-24T00:14:49.805Z,10.6
2018-06-24T00:16:49.960Z,12.2
2018-06-24T00:18:50.067Z,12.5
2018-06-24T00:20:50.166Z,11.5
2018-06-24T00:22:50.267Z,11.5
2018-06-24T00:24:50.395Z,10.1
2018-06-24T00:26:49.674Z,11.9
2018-06-24T00:28:49.776Z,10.1
2018-06-24T00:30:49.912Z,10.1
2018-06-24T00:32:50.001Z,10.1
2018-06-24T00:34:50.248Z,10.3
2018-06-24T00:36:49.544Z,9.6
2018-06-24T00:38:49.586Z,9.4
2018-06-24T00:40:49.668Z,8.6
2018-06-24T00:42:49.901Z,8.6
2018-06-24T00:44:50.134Z,11.8
2018-06-24T00:46:50.392Z,10.0
2018-06-24T00:48:49.475Z,9.4
2018-06-24T00:50:49.592Z,9.4
2018-06-24T00:52:49.715Z,12.3
2018-06-24T00:54:49.833Z,13.0
2018-06-24T00:56:50.185Z,10.6
2018-06-24T00:58:50.265Z,13.8
2018-06-24T01:00:50.336Z,11.8
2018-06-24T01:02:50.446Z,11.8
2018-06-24T01:04:49.775Z,11.8
2018-06-24T01:06:49.957Z,11.6
2018-06-24T01:08:50.010Z,11.6
2018-06-24T01:10:50.188Z,13.6
2018-06-24T01:12:50.389Z,12.5
2018-06-24T01:14:49.441Z,12.9
2018-06-24T01:16:49.586Z,12.6
2018-06-24T01:18:49.664Z,12.5
2018-06-24T01:20:49.770Z,12.5
2018-06-24T01:22:49.879Z,13.2
2018-06-24T01:24:49.962Z,14.4
2018-06-24T01:26:50.258Z,14.1
2018-06-24T01:28:50.317Z,14.1
2018-06-24T01:30:49.469Z,14.1
2018-06-24T01:32:49.632Z,12.8
2018-06-24T01:34:49.871Z,14.2
2018-06-24T01:36:50.136Z,13.2
2018-06-24T01:38:50.339Z,13.2
2018-06-24T01:40:49.464Z,14.4
2018-06-24T01:42:49.533Z,14.4
2018-06-24T01:44:49.610Z,16.6
2018-06-24T01:46:49.838Z,19.1
2018-06-24T01:48:49.919Z,14.5
2018-06-24T01:50:49.996Z,14.5
2018-06-24T01:52:50.051Z,13.5
2018-06-24T01:54:50.083Z,11.8
2018-06-24T01:56:50.443Z,11.8
2018-06-24T01:58:49.515Z,12.6
2018-06-24T02:00:49.667Z,12.6
2018-06-24T02:02:49.719Z,11.4
2018-06-24T02:04:50.038Z,14.3
2018-06-24T02:06:50.364Z,11.6
2018-06-24T02:08:49.954Z,13.2
2018-06-24T02:10:50.103Z,13.2
2018-06-24T02:12:50.217Z,11.5
2018-06-24T02:14:50.323Z,14.3
2018-06-24T02:16:49.510Z,11.7
2018-06-24T02:18:49.560Z,11.7
2018-06-24T02:20:49.649Z,11.9
2018-06-24T02:22:49.787Z,12.4
2018-06-24T02:24:49.883Z,12.8
2018-06-24T02:26:50.065Z,14.8
2018-06-24T02:28:50.153Z,14.8
2018-06-24T02:30:50.284Z,13.4
2018-06-24T02:32:50.422Z,12.8
2018-06-24T02:34:49.598Z,12.8
2018-06-24T02:36:49.845Z,13.2
2018-06-24T02:38:49.982Z,14.0
2018-06-24T02:40:50.108Z,12.4
2018-06-24T02:42:50.184Z,14.2
2018-06-24T02:44:50.266Z,14.2
2018-06-24T02:46:49.525Z,12.6
2018-06-24T02:48:49.677Z,12.6
2018-06-24T02:50:49.757Z,13.4
2018-06-24T02:52:49.899Z,12.2
2018-06-24T02:54:50.011Z,12.7
2018-06-24T02:56:50.335Z,12.7
2018-06-24T02:58:49.470Z,12.2
2018-06-24T03:00:49.594Z,14.0
2018-06-24T03:02:49.675Z,13.7
2018-06-24T03:04:49.902Z,13.2
2018-06-24T03:06:50.103Z,13.2
2018-06-24T03:08:50.178Z,11.9
2018-06-24T03:10:50.274Z,15.0
2018-06-24T03:12:50.431Z,11.3
2018-06-24T03:14:49.479Z,16.4
2018-06-24T03:16:49.706Z,16.4
2018-06-24T03:18:49.822Z,10.7
2018-06-24T03:20:49.869Z,11.8
2018-06-24T03:22:50.011Z,12.7
2018-06-24T03:24:50.080Z,11.5
2018-06-24T03:26:50.387Z,11.5
2018-06-24T03:28:49.470Z,13.0
2018-06-24T03:30:49.547Z,11.1
2018-06-24T03:32:49.664Z,14.5
2018-06-24T03:34:49.941Z,12.3
2018-06-24T03:36:50.061Z,12.3
2018-06-24T03:38:50.174Z,11.3
2018-06-24T03:40:50.266Z,16.0
2018-06-24T03:42:50.316Z,11.8
2018-06-24T03:44:50.384Z,11.8
2018-06-24T03:46:49.826Z,11.8
2018-06-24T03:48:49.909Z,12.7
2018-06-24T03:50:50.052Z,11.4
2018-06-24T03:52:50.148Z,12.5
2018-06-24T03:54:50.218Z,12.5
2018-06-24T03:56:50.395Z,11.4
2018-06-24T03:58:49.526Z,13.4
2018-06-24T04:00:49.652Z,13.4
2018-06-24T04:02:49.719Z,13.5
2018-06-24T04:04:50.063Z,13.5
2018-06-24T04:06:50.276Z,12.9
2018-06-24T04:08:50.369Z,13.3
2018-06-24T04:10:49.450Z,13.0
2018-06-24T04:12:49.612Z,13.7
2018-06-24T04:14:49.729Z,13.7
2018-06-24T04:16:50.023Z,11.5
2018-06-24T04:18:50.171Z,11.9
2018-06-24T04:20:50.228Z,11.9
2018-06-24T04:22:50.338Z,11.9
2018-06-24T04:24:50.386Z,14.2
2018-06-24T04:26:49.741Z,12.1
2018-06-24T04:28:49.831Z,12.9
2018-06-24T04:30:49.932Z,11.6
2018-06-24T04:32:50.025Z,11.6
2018-06-24T04:34:50.292Z,13.3
2018-06-24T04:36:49.564Z,14.5
2018-06-24T04:38:49.680Z,15.7
2018-06-24T04:40:49.733Z,15.7
2018-06-24T04:42:49.840Z,14.1
2018-06-24T04:44:49.941Z,15.2
2018-06-24T04:46:50.116Z,12.8
2018-06-24T04:48:50.164Z,11.6
2018-06-24T04:50:50.346Z,11.3
2018-06-24T04:52:50.385Z,11.3
2018-06-24T04:54:49.519Z,11.1
2018-06-24T04:56:49.795Z,10.8
2018-06-24T04:58:49.892Z,12.6
2018-06-24T05:00:50.006Z,12.6
2018-06-24T05:02:50.096Z,12.5
2018-06-24T05:04:50.370Z,12.8
2018-06-24T05:06:49.684Z,10.6
2018-06-24T05:08:49.763Z,11.2
2018-06-24T05:10:49.869Z,11.2
2018-06-24T05:12:49.972Z,10.0
2018-06-24T05:14:50.028Z,11.6
2018-06-24T05:16:50.253Z,10.2
2018-06-24T05:18:50.366Z,10.2
2018-06-24T05:20:49.526Z,10.6
2018-06-24T05:22:49.658Z,10.6
2018-06-24T05:24:49.721Z,11.4
2018-06-24T05:26:49.912Z,9.5
2018-06-24T05:28:50.039Z,12.4
2018-06-24T05:30:50.093Z,12.4
2018-06-24T05:32:50.329Z,10.4
2018-06-24T05:34:49.571Z,10.8
2018-06-24T05:36:50.322Z,11.0
2018-06-24T05:38:49.461Z,11.4
2018-06-24T05:40:49.581Z,11.4
2018-06-24T05:42:49.714Z,13.6
2018-06-24T05:44:49.858Z,12.0
2018-06-24T05:46:50.073Z,11.4
2018-06-24T05:48:50.252Z,10.0
2018-06-24T05:50:50.167Z,10.0
2018-06-24T05:52:50.243Z,9.7
2018-06-24T05:54:50.397Z,11.6
2018-06-24T05:56:49.665Z,11.6
2018-06-24T05:58:49.786Z,9.3
2018-06-24T06:00:49.959Z,10.4
2018-06-24T06:02:50.101Z,12.9
2018-06-24T06:04:49.878Z,10.8
2018-06-24T06:06:50.184Z,10.0
2018-06-24T06:08:50.230Z,10.0
2018-06-24T06:10:50.318Z,8.8
2018-06-24T06:12:50.429Z,10.7
2018-06-24T06:14:49.559Z,10.7
2018-06-24T06:16:49.738Z,10.3
2018-06-24T06:18:49.898Z,10.3
2018-06-24T06:20:50.392Z,8.5
2018-06-24T06:22:49.849Z,9.6
2018-06-24T06:24:50.395Z,9.6
2018-06-24T06:26:49.526Z,10.1
2018-06-24T06:28:49.585Z,10.2
2018-06-24T06:30:49.846Z,9.4
2018-06-24T06:32:50.267Z,9.7
2018-06-24T06:34:49.545Z,11.0
2018-06-24T06:36:49.779Z,9.2
2018-06-24T06:38:49.630Z,9.2
2018-06-24T06:40:49.782Z,9.7
2018-06-24T06:42:49.939Z,11.6
2018-06-24T06:44:50.052Z,11.6
2018-06-24T06:46:49.582Z,11.6
2018-06-24T06:48:49.843Z,8.8
2018-06-24T06:50:49.950Z,8.0
2018-06-24T06:52:50.084Z,8.9
2018-06-24T06:54:50.179Z,8.9
2018-06-24T06:56:50.436Z,8.9
2018-06-24T06:58:49.497Z,7.2
2018-06-24T07:00:49.558Z,9.4
2018-06-24T07:02:49.623Z,8.4
2018-06-24T07:04:49.922Z,8.7
2018-06-24T07:06:50.114Z,8.7
2018-06-24T07:08:50.202Z,8.7
2018-06-24T07:10:50.279Z,7.2
2018-06-24T07:12:50.356Z,6.7
2018-06-24T07:14:49.529Z,8.4
2018-06-24T07:16:49.728Z,8.4
2018-06-24T07:18:49.822Z,8.0
2018-06-24T07:20:49.934Z,7.0
2018-06-24T07:22:50.041Z,7.0
2018-06-24T07:24:50.173Z,7.0
2018-06-24T07:26:50.402Z,5.8
2018-06-24T07:28:49.551Z,5.9
2018-06-24T07:30:49.688Z,6.7
2018-06-24T07:32:49.883Z,6.0
2018-06-24T07:34:50.321Z,7.0
2018-06-24T07:36:49.683Z,7.0
2018-06-24T07:38:49.909Z,8.1
2018-06-24T07:40:50.081Z,6.6
2018-06-24T07:42:50.187Z,6.6
2018-06-24T07:44:50.346Z,6.6
2018-06-24T07:46:49.596Z,5.0
2018-06-24T07:48:49.730Z,6.4
2018-06-24T07:50:49.917Z,6.4
2018-06-24T07:52:50.066Z,6.3
2018-06-24T07:54:50.243Z,6.3
2018-06-24T07:56:49.458Z,7.9
2018-06-24T07:58:49.576Z,6.2
2018-06-24T08:00:49.696Z,6.9
2018-06-24T08:02:49.884Z,5.0
2018-06-24T08:04:50.107Z,5.0
2018-06-24T08:06:49.443Z,5.2
2018-06-24T08:08:49.600Z,6.4
2018-06-24T08:10:49.663Z,8.3
2018-06-24T08:12:49.752Z,5.6
2018-06-24T08:14:49.849Z,5.6
2018-06-24T08:16:50.040Z,5.5
2018-06-24T08:18:50.175Z,5.9
2018-06-24T08:20:49.449Z,5.9
2018-06-24T08:22:49.662Z,7.2
2018-06-24T08:24:50.303Z,7.2
2018-06-24T08:26:49.793Z,5.0
2018-06-24T08:28:49.917Z,6.5
2018-06-24T08:30:50.085Z,5.8
2018-06-24T08:32:50.210Z,6.0
2018-06-24T08:34:50.426Z,6.0
2018-06-24T08:36:49.581Z,6.6
2018-06-24T08:38:49.678Z,5.7
2018-06-24T08:40:49.785Z,5.7
2018-06-24T08:42:49.951Z,5.6
2018-06-24T08:44:49.992Z,6.0
2018-06-24T08:46:50.179Z,6.0
2018-06-24T08:48:50.277Z,5.8
2018-06-24T08:50:50.431Z,5.5
2018-06-24T08:52:49.571Z,4.1
2018-06-24T08:54:49.674Z,4.1
2018-06-24T08:56:49.920Z,4.9
2018-06-24T08:58:50.017Z,4.7
2018-06-24T09:00:50.098Z,4.8
2018-06-24T09:02:50.202Z,4.8
2018-06-24T09:04:49.453Z,4.6
2018-06-24T09:06:49.694Z,6.0
2018-06-24T09:08:49.803Z,5.8
2018-06-24T09:10:49.924Z,5.5
2018-06-24T09:12:50.048Z,5.5
2018-06-24T09:14:50.225Z,4.8
2018-06-24T09:16:49.766Z,5.6
2018-06-24T09:18:49.895Z,4.8
2018-06-24T09:20:49.988Z,2.8
2018-06-24T09:22:50.096Z,2.8
2018-06-24T09:24:50.207Z,5.6
2018-06-24T09:26:49.481Z,4.6
2018-06-24T09:28:49.842Z,5.9
2018-06-24T09:30:50.019Z,5.9
2018-06-24T09:32:49.937Z,4.7
2018-06-24T09:34:50.287Z,4.1
2018-06-24T09:36:49.597Z,4.1
2018-06-24T09:38:49.710Z,5.3
2018-06-24T09:40:49.791Z,5.3
2018-06-24T09:42:49.924Z,5.9
2018-06-24T09:44:50.007Z,5.5
2018-06-24T09:46:50.221Z,5.5
2018-06-24T09:48:50.399Z,6.4
2018-06-24T09:50:49.468Z,6.4
2018-06-24T09:52:49.599Z,4.4
2018-06-24T09:54:50.320Z,6.1
2018-06-24T09:56:49.486Z,4.2
2018-06-24T09:58:49.610Z,5.2
2018-06-24T10:00:49.769Z,5.2
2018-06-24T10:02:49.836Z,4.7
2018-06-24T10:04:50.159Z,5.3
2018-06-24T10:06:49.455Z,5.3
2018-06-24T10:08:49.652Z,4.9
2018-06-24T10:10:49.737Z,4.9
2018-06-24T10:12:49.897Z,4.4
2018-06-24T10:14:49.980Z,4.7
2018-06-24T10:16:50.322Z,6.3
2018-06-24T10:18:50.402Z,6.3
2018-06-24T10:20:49.590Z,4.4
2018-06-24T10:22:49.892Z,4.6
2018-06-24T10:24:49.593Z,4.5
2018-06-24T10:26:50.182Z,2.9
2018-06-24T10:28:50.289Z,2.9
2018-06-24T10:30:50.402Z,4.4
2018-06-24T10:32:49.486Z,3.7
2018-06-24T10:34:49.848Z,5.4
2018-06-24T10:36:50.052Z,2.5
2018-06-24T10:38:50.321Z,2.5
2018-06-24T10:40:50.437Z,2.2
2018-06-24T10:42:49.537Z,3.7
2018-06-24T10:44:49.655Z,3.2
2018-06-24T10:46:49.747Z,3.5
2018-06-24T10:48:49.870Z,3.5
2018-06-24T10:50:49.954Z,2.4
2018-06-24T10:52:50.204Z,3.7
2018-06-24T10:54:49.539Z,2.8
2018-06-24T10:56:49.735Z,4.4
2018-06-24T10:58:49.869Z,4.4
2018-06-24T11:00:49.960Z,2.6
2018-06-24T11:02:50.112Z,3.0
2018-06-24T11:04:50.360Z,5.5
2018-06-24T11:06:49.593Z,5.5
2018-06-24T11:08:49.678Z,3.8
2018-06-24T11:10:49.744Z,3.8
2018-06-24T11:12:49.935Z,3.6
2018-06-24T11:14:50.016Z,4.2
2018-06-24T11:16:50.236Z,4.2
2018-06-24T11:18:50.292Z,4.2
2018-06-24T11:20:50.422Z,2.6
2018-06-24T11:22:49.520Z,2.3
2018-06-24T11:24:49.554Z,3.0
2018-06-24T11:26:49.648Z,2.7
2018-06-24T11:28:49.737Z,2.7
2018-06-24T11:30:49.808Z,2.7
2018-06-24T11:32:49.876Z,2.7
2018-06-24T11:34:50.184Z,3.4
2018-06-24T11:36:49.426Z,3.4
2018-06-24T11:38:49.546Z,3.4
2018-06-24T11:40:49.617Z,4.0
2018-06-24T11:42:49.620Z,4.0
2018-06-24T11:44:49.704Z,3.2
2018-06-24T11:46:49.881Z,4.0
2018-06-24T11:48:49.932Z,2.1
2018-06-24T11:50:50.052Z,3.7
2018-06-24T11:52:50.111Z,3.0
2018-06-24T11:54:50.211Z,3.0
2018-06-24T11:56:49.490Z,4.4
2018-06-24T11:58:49.624Z,2.4
2018-06-24T12:00:49.922Z,3.4
2018-06-24T12:02:50.027Z,2.3
2018-06-24T12:04:50.429Z,3.4
2018-06-24T12:06:49.656Z,3.4
2018-06-24T12:08:49.985Z,2.8
2018-06-24T12:10:50.056Z,2.4
2018-06-24T12:12:49.736Z,2.4
2018-06-24T12:14:49.849Z,2.6
2018-06-24T12:16:50.016Z,2.6
2018-06-24T12:18:50.039Z,2.8
2018-06-24T12:20:50.095Z,3.2
2018-06-24T12:22:50.262Z,2.3
2018-06-24T12:24:50.291Z,2.3
2018-06-24T12:26:49.465Z,3.1
2018-06-24T12:28:49.591Z,2.3
2018-06-24T12:30:49.691Z,4.3
2018-06-24T12:32:50.368Z,4.3
2018-06-24T12:34:49.818Z,3.0
2018-06-24T12:36:50.046Z,2.5
2018-06-24T12:38:50.121Z,2.1
2018-06-24T12:40:50.203Z,1.8
2018-06-24T12:42:50.327Z,1.8
2018-06-24T12:44:49.501Z,3.0
2018-06-24T12:46:49.613Z,3.0
2018-06-24T12:48:49.720Z,2.3
2018-06-24T12:50:49.832Z,1.9
2018-06-24T12:52:50.087Z,1.9
2018-06-24T12:54:49.785Z,2.1
2018-06-24T12:56:50.024Z,2.2
2018-06-24T12:58:50.296Z,3.4
2018-06-24T13:00:50.874Z,3.4
2018-06-24T13:02:50.309Z,2.8
2018-06-24T13:04:49.506Z,3.3
2018-06-24T13:06:49.660Z,2.1
2018-06-24T13:08:49.834Z,2.0
2018-06-24T13:10:49.898Z,2.0
2018-06-24T13:12:49.979Z,2.0
2018-06-24T13:14:50.055Z,2.0
2018-06-24T13:16:50.269Z,1.6
2018-06-24T13:18:50.310Z,3.1
2018-06-24T13:20:50.387Z,2.7
2018-06-24T13:22:50.402Z,2.7
2018-06-24T13:24:49.472Z,2.4
2018-06-24T13:26:49.706Z,1.8
2018-06-24T13:28:49.604Z,1.8
2018-06-24T13:30:49.662Z,3.4
2018-06-24T13:32:49.730Z,1.5
2018-06-24T13:34:49.978Z,3.0
2018-06-24T13:36:50.156Z,2.2
2018-06-24T13:38:50.293Z,3.0
2018-06-24T13:40:49.477Z,3.0
2018-06-24T13:42:49.660Z,5.4
2018-06-24T13:44:49.798Z,5.2
2018-06-24T13:46:49.952Z,3.9
2018-06-24T13:48:50.196Z,4.1
2018-06-24T13:50:50.338Z,4.1
2018-06-24T13:52:49.504Z,3.7
2018-06-24T13:54:49.623Z,2.6
2018-06-24T13:56:49.819Z,2.9
2018-06-24T13:58:49.875Z,4.2
2018-06-24T14:00:50.097Z,4.2
2018-06-24T14:02:50.156Z,5.1
2018-06-24T14:04:50.355Z,2.8
2018-06-24T14:06:49.569Z,2.7
2018-06-24T14:08:49.668Z,3.0
2018-06-24T14:10:49.713Z,3.0
2018-06-24T14:12:49.865Z,2.5
2018-06-24T14:14:49.952Z,3.8
2018-06-24T14:16:50.142Z,2.6
2018-06-24T14:18:50.175Z,2.6
2018-06-24T14:20:50.265Z,3.1
2018-06-24T14:22:50.294Z,4.9
2018-06-24T14:24:50.341Z,3.0
2018-06-24T14:26:49.541Z,3.7
2018-06-24T14:28:49.595Z,3.7
2018-06-24T14:30:50.065Z,4.0
2018-06-24T14:32:50.143Z,2.5
2018-06-24T14:34:50.393Z,5.1
2018-06-24T14:36:49.721Z,3.9
2018-06-24T14:38:49.872Z,3.9
2018-06-24T14:40:49.975Z,2.6
2018-06-24T14:42:50.120Z,3.4
2018-06-24T14:44:50.181Z,2.9
2018-06-24T14:46:50.415Z,4.4
2018-06-24T14:48:49.492Z,4.4
2018-06-24T14:50:49.528Z,2.3
2018-06-24T14:52:49.618Z,3.0
2018-06-24T14:54:49.652Z,3.8
2018-06-24T14:56:49.793Z,3.8
2018-06-24T14:58:49.860Z,4.8
2018-06-24T15:00:49.975Z,3.1
2018-06-24T15:02:50.035Z,3.1
2018-06-24T15:04:50.348Z,4.4
2018-06-24T15:06:49.593Z,3.7
2018-06-24T15:08:49.640Z,3.7
2018-06-24T15:10:49.699Z,3.3
2018-06-24T15:12:49.793Z,3.3
2018-06-24T15:14:49.853Z,4.2
2018-06-24T15:16:50.095Z,4.2
2018-06-24T15:18:50.134Z,3.3
2018-06-24T15:20:50.173Z,3.6
2018-06-24T15:22:50.246Z,4.3
2018-06-24T15:24:50.299Z,4.3
2018-06-24T15:26:49.520Z,4.0
2018-06-24T15:28:49.625Z,3.7
2018-06-24T15:30:49.710Z,3.9
2018-06-24T15:32:49.857Z,4.2
2018-06-24T15:34:50.137Z,5.3
2018-06-24T15:36:50.367Z,5.3
2018-06-24T15:38:49.521Z,5.6
2018-06-24T15:40:49.591Z,4.2
2018-06-24T15:42:49.682Z,4.1
2018-06-24T15:44:49.785Z,3.9
2018-06-24T15:46:49.949Z,4.1
2018-06-24T15:48:50.113Z,4.1
2018-06-24T15:50:50.241Z,4.0
2018-06-24T15:52:50.357Z,5.3
2018-06-24T15:54:50.406Z,3.6
2018-06-24T15:56:49.588Z,3.6
2018-06-24T15:58:49.673Z,4.1
2018-06-24T16:00:49.720Z,4.8
2018-06-24T16:02:49.905Z,3.5
2018-06-24T16:04:50.249Z,5.3
2018-06-24T16:06:49.535Z,5.3
2018-06-24T16:08:49.720Z,4.2
2018-06-24T16:10:49.828Z,3.5
2018-06-24T16:12:50.157Z,4.3
2018-06-24T16:14:50.316Z,3.3
2018-06-24T16:16:49.652Z,3.3
2018-06-24T16:18:49.750Z,4.1
2018-06-24T16:20:49.992Z,5.1
2018-06-24T16:22:50.064Z,3.5
2018-06-24T16:24:50.177Z,3.5
2018-06-24T16:26:50.333Z,3.2
2018-06-24T16:28:50.391Z,3.6
2018-06-24T16:30:49.632Z,4.1
2018-06-24T16:32:50.309Z,4.3
2018-06-24T16:34:49.644Z,4.3
2018-06-24T16:36:49.809Z,3.5
2018-06-24T16:38:49.974Z,3.6
2018-06-24T16:40:50.052Z,4.2
2018-06-24T16:42:50.079Z,4.2
2018-06-24T16:44:50.176Z,3.9
2018-06-24T16:46:50.324Z,5.1
2018-06-24T16:48:49.488Z,4.8
2018-06-24T16:50:49.578Z,4.8
2018-06-24T16:52:49.667Z,4.1
2018-06-24T16:54:49.780Z,4.1
2018-06-24T16:56:49.985Z,6.3
2018-06-24T16:58:50.263Z,4.3
2018-06-24T17:00:50.331Z,5.5
2018-06-24T17:02:50.410Z,5.5
2018-06-24T17:04:49.807Z,5.5
2018-06-24T17:06:49.982Z,4.0
2018-06-24T17:08:50.073Z,5.5
2018-06-24T17:10:50.203Z,5.7
2018-06-24T17:12:49.676Z,5.7
2018-06-24T17:14:49.695Z,4.3
2018-06-24T17:16:49.888Z,4.4
2018-06-24T17:18:49.977Z,5.3
2018-06-24T17:20:50.078Z,4.0
2018-06-24T17:22:50.225Z,4.0
2018-06-24T17:24:50.365Z,4.0
2018-06-24T17:26:49.649Z,4.1
2018-06-24T17:28:49.710Z,5.9
2018-06-24T17:30:49.827Z,5.9
2018-06-24T17:32:49.972Z,4.5
2018-06-24T17:34:50.262Z,4.7
2018-06-24T17:36:49.542Z,4.0
2018-06-24T17:38:49.694Z,4.7
2018-06-24T17:40:49.804Z,4.7
2018-06-24T17:42:49.933Z,3.7
2018-06-24T17:44:50.105Z,3.5
2018-06-24T17:46:50.360Z,3.8
2018-06-24T17:48:49.445Z,3.8
2018-06-24T17:50:49.500Z,5.2
2018-06-24T17:52:49.615Z,5.2
2018-06-24T17:54:49.677Z,4.8
2018-06-24T17:56:49.916Z,5.2
2018-06-24T17:58:49.983Z,3.7
2018-06-24T18:00:50.104Z,5.0
2018-06-24T18:02:50.181Z,5.0
2018-06-24T18:04:49.480Z,3.0
2018-06-24T18:06:49.696Z,3.2
2018-06-24T18:08:49.767Z,4.2
2018-06-24T18:10:49.878Z,4.8
2018-06-24T18:12:49.995Z,4.8
2018-06-24T18:14:50.074Z,4.0
2018-06-24T18:16:50.358Z,3.7
2018-06-24T18:18:50.442Z,4.3
2018-06-24T18:20:49.480Z,4.3
2018-06-24T18:22:49.627Z,2.5
2018-06-24T18:24:49.702Z,2.6
2018-06-24T18:26:49.916Z,3.4
2018-06-24T18:28:49.994Z,3.1
2018-06-24T18:30:50.026Z,3.1
2018-06-24T18:32:50.117Z,3.2
2018-06-24T18:34:50.306Z,4.9
2018-06-24T18:36:49.656Z,4.4
2018-06-24T18:38:49.709Z,4.4
2018-06-24T18:40:49.758Z,3.3
2018-06-24T18:42:49.891Z,3.8
2018-06-24T18:44:50.072Z,3.5
2018-06-24T18:46:50.321Z,2.6
2018-06-24T18:48:50.364Z,4.1
2018-06-24T18:50:50.433Z,4.1
2018-06-24T18:52:49.478Z,2.4
2018-06-24T18:54:49.537Z,2.4
2018-06-24T18:56:49.753Z,3.6
2018-06-24T18:58:50.235Z,3.6
2018-06-24T19:00:50.270Z,2.5
2018-06-24T19:02:50.686Z,2.5
2018-06-24T19:04:50.112Z,2.9
2018-06-24T19:06:50.350Z,4.6
2018-06-24T19:08:49.554Z,4.6
2018-06-24T19:10:49.657Z,4.3
2018-06-24T19:12:49.708Z,3.4
2018-06-24T19:14:49.832Z,2.0
2018-06-24T19:16:50.042Z,4.2
2018-06-24T19:18:50.298Z,4.2
2018-06-24T19:20:50.122Z,3.3
2018-06-24T19:22:50.215Z,3.7
2018-06-24T19:24:50.352Z,3.4
2018-06-24T19:26:49.591Z,3.4
2018-06-24T19:28:49.732Z,2.8
2018-06-24T19:30:49.859Z,4.4
2018-06-24T19:32:50.058Z,2.8
2018-06-24T19:34:49.742Z,2.9
2018-06-24T19:36:49.866Z,2.9
2018-06-24T19:38:50.001Z,2.5
2018-06-24T19:40:50.105Z,3.3
2018-06-24T19:42:50.207Z,3.3
2018-06-24T19:44:50.309Z,2.8
2018-06-24T19:46:50.404Z,2.8
2018-06-24T19:48:49.485Z,4.5
2018-06-24T19:50:49.591Z,3.9
2018-06-24T19:52:49.631Z,3.9
2018-06-24T19:54:49.742Z,2.8
2018-06-24T19:56:49.993Z,2.8
2018-06-24T19:58:50.110Z,3.0
2018-06-24T20:00:50.233Z,3.5
2018-06-24T20:02:50.366Z,3.5
2018-06-24T20:04:49.625Z,3.8
2018-06-24T20:06:49.871Z,3.8
2018-06-24T20:08:49.992Z,3.8
2018-06-24T20:10:50.049Z,6.2
2018-06-24T20:12:50.234Z,5.7
2018-06-24T20:14:50.337Z,2.6
2018-06-24T20:16:49.509Z,2.6
2018-06-24T20:18:49.573Z,5.5
2018-06-24T20:20:49.818Z,4.7
2018-06-24T20:22:49.915Z,3.1
2018-06-24T20:24:50.005Z,3.3
2018-06-24T20:26:50.221Z,3.3
2018-06-24T20:28:50.313Z,4.7
2018-06-24T20:30:50.371Z,2.7
2018-06-24T20:32:49.457Z,3.3
2018-06-24T20:34:49.700Z,5.1
2018-06-24T20:36:49.867Z,5.1
2018-06-24T20:38:49.938Z,3.5
2018-06-24T20:40:50.001Z,4.3
2018-06-24T20:42:50.117Z,3.7
2018-06-24T20:44:50.231Z,3.7
2018-06-24T20:46:49.526Z,2.9
2018-06-24T20:48:49.609Z,2.6
2018-06-24T20:50:49.764Z,3.6
2018-06-24T20:52:49.622Z,3.6
2018-06-24T20:54:49.782Z,2.3
2018-06-24T20:56:49.917Z,3.0
2018-06-24T20:58:50.173Z,2.4
2018-06-24T21:00:50.208Z,3.0
2018-06-24T21:02:50.333Z,3.0
2018-06-24T21:04:49.539Z,4.2
2018-06-24T21:06:49.827Z,2.6
2018-06-24T21:08:49.860Z,4.4
2018-06-24T21:10:49.899Z,4.4
2018-06-24T21:12:49.947Z,2.6
2018-06-24T21:14:49.989Z,2.6
2018-06-24T21:16:50.262Z,5.9
2018-06-24T21:18:50.315Z,3.7
2018-06-24T21:20:50.394Z,4.7
2018-06-24T21:22:49.505Z,4.7
2018-06-24T21:24:49.728Z,2.7
2018-06-24T21:26:49.622Z,3.8
2018-06-24T21:28:49.680Z,3.5
2018-06-24T21:30:49.772Z,4.5
2018-06-24T21:32:49.896Z,4.5
2018-06-24T21:34:50.370Z,2.5
2018-06-24T21:36:49.566Z,4.4
2018-06-24T21:38:49.602Z,4.8
2018-06-24T21:40:49.675Z,2.8
2018-06-24T21:42:49.748Z,2.8
2018-06-24T21:44:49.798Z,4.5
2018-06-24T21:46:49.978Z,2.7
2018-06-24T21:48:50.082Z,2.4
2018-06-24T21:50:50.149Z,2.4
2018-06-24T21:52:50.205Z,3.6
2018-06-24T21:54:50.225Z,4.2
2018-06-24T21:56:50.375Z,4.4
2018-06-24T21:58:50.446Z,2.5
2018-06-24T22:00:49.557Z,2.5
2018-06-24T22:02:49.694Z,4.5
2018-06-24T22:04:50.014Z,3.3
2018-06-24T22:06:50.240Z,3.2
2018-06-24T22:08:50.293Z,4.1
2018-06-24T22:10:50.384Z,4.1
2018-06-24T22:12:49.446Z,2.4
2018-06-24T22:14:49.556Z,4.0
2018-06-24T22:16:49.719Z,4.9
2018-06-24T22:18:49.793Z,2.6
2018-06-24T22:20:49.973Z,2.6
2018-06-24T22:22:50.013Z,4.0
2018-06-24T22:24:50.095Z,4.7
2018-06-24T22:26:50.329Z,3.5
2018-06-24T22:28:49.457Z,3.5
2018-06-24T22:30:49.621Z,3.4
2018-06-24T22:32:49.758Z,4.0
2018-06-24T22:34:50.196Z,3.2
2018-06-24T22:36:50.374Z,3.4
2018-06-24T22:38:49.529Z,3.4
2018-06-24T22:40:49.601Z,2.1
2018-06-24T22:42:49.709Z,3.7
2018-06-24T22:44:49.794Z,4.3
2018-06-24T22:46:50.161Z,2.7
2018-06-24T22:48:49.759Z,3.1
2018-06-24T22:50:50.353Z,3.1
2018-06-24T22:52:49.821Z,3.1
2018-06-24T22:54:49.923Z,3.3
2018-06-24T22:56:50.135Z,3.3
2018-06-24T22:58:50.188Z,3.7
2018-06-24T23:00:50.261Z,3.7
2018-06-24T23:02:49.671Z,2.3
2018-06-24T23:04:49.993Z,2.5
2018-06-24T23:06:50.228Z,2.7
2018-06-24T23:08:49.619Z,2.7
2018-06-24T23:10:49.651Z,3.7
2018-06-24T23:12:49.727Z,3.0
2018-06-24T23:14:49.826Z,3.3
2018-06-24T23:16:50.056Z,2.9
2018-06-24T23:18:50.145Z,2.9
2018-06-24T23:20:50.227Z,4.6
2018-06-24T23:22:50.353Z,2.9
2018-06-24T23:24:50.406Z,4.0
2018-06-24T23:26:49.697Z,6.2
2018-06-24T23:28:49.760Z,6.2
2018-06-24T23:30:49.945Z,3.4
2018-06-24T23:32:50.003Z,3.9
2018-06-24T23:34:50.362Z,3.9
2018-06-24T23:36:49.646Z,2.6
2018-06-24T23:38:49.698Z,2.6
2018-06-24T23:40:49.786Z,2.7
2018-06-24T23:42:49.863Z,3.5
2018-06-24T23:44:49.956Z,2.9
2018-06-24T23:46:50.147Z,2.9
2018-06-24T23:48:50.278Z,2.8
2018-06-24T23:50:50.313Z,3.4
2018-06-24T23:52:50.360Z,4.4
2018-06-24T23:54:50.402Z,5.1
2018-06-24T23:56:49.611Z,5.1
2018-06-24T23:58:49.668Z,2.9
